Time;durP1;ratioP1;P1;durP2;ratioP2;P2;SDS_P1;SDS_P2;PMS_P1;PMS_P2;Temp;Humidity;BMP_temperature;BMP_pressure;BME280_temperature;BME280_humidity;BME280_pressure;Samples;Min_cycle;Max_cycle;Signal;HPM_P1;HPM_P2
2022/06/01 00:01:50;;;;;;;15.45;10.77;;;11.70;99.90;;;;;;6246868;23;20086;-82
2022/06/01 00:04:18;;;;;;;15.77;10.75;;;11.70;99.90;;;;;;6219152;23;20034;-82
2022/06/01 00:06:44;;;;;;;16.80;11.02;;;11.70;99.90;;;;;;6246516;23;20016;-82
2022/06/01 00:09:09;;;;;;;16.98;11.00;;;11.70;99.90;;;;;;6194333;23;20015;-82
2022/06/01 00:11:35;;;;;;;18.65;11.65;;;11.70;99.90;;;;;;6256312;23;20013;-80
2022/06/01 00:14:01;;;;;;;17.35;11.05;;;11.70;99.90;;;;;;6245477;23;20019;-80
2022/06/01 00:16:26;;;;;;;15.90;11.13;;;11.60;99.90;;;;;;6214922;23;20016;-82
2022/06/01 00:18:52;;;;;;;15.25;12.35;;;11.70;99.90;;;;;;6244406;23;20398;-82
2022/06/01 00:21:18;;;;;;;16.67;10.90;;;11.60;99.90;;;;;;6244483;23;20020;-81
2022/06/01 00:23:43;;;;;;;15.30;11.23;;;11.60;99.90;;;;;;6244070;23;20012;-82
2022/06/01 00:26:09;;;;;;;17.15;10.85;;;11.50;99.90;;;;;;6244245;23;20019;-81
2022/06/01 00:28:35;;;;;;;15.88;10.90;;;11.50;99.90;;;;;;6244354;23;20008;-82
2022/06/01 00:31:01;;;;;;;15.80;11.23;;;11.40;99.90;;;;;;6244364;23;20022;-82
2022/06/01 00:33:27;;;;;;;17.90;12.07;;;11.40;99.90;;;;;;6217316;23;20012;-82
2022/06/01 00:35:53;;;;;;;15.65;11.30;;;11.40;99.90;;;;;;6217369;23;20102;-82
2022/06/01 00:38:18;;;;;;;19.10;12.55;;;11.30;99.90;;;;;;6217720;23;20020;-82
2022/06/01 00:40:44;;;;;;;15.50;11.40;;;11.30;99.90;;;;;;6242535;23;20008;-82
2022/06/01 00:43:21;;;;;;;15.68;11.15;;;11.20;99.90;;;;;;6244232;23;20054;-82
2022/06/01 00:45:47;;;;;;;15.95;11.45;;;11.20;99.90;;;;;;6244471;23;20012;-81
2022/06/01 00:48:13;;;;;;;21.33;11.43;;;11.20;99.90;;;;;;6243014;23;20039;-81
2022/06/01 00:50:41;;;;;;;16.13;11.40;;;11.20;99.90;;;;;;6244507;23;20008;-82
2022/06/01 00:53:12;;;;;;;17.80;11.57;;;11.10;99.90;;;;;;6217618;23;20016;-82
2022/06/01 00:55:42;;;;;;;16.30;11.20;;;11.10;99.90;;;;;;6244720;23;20008;-81
2022/06/01 00:58:13;;;;;;;15.25;11.35;;;11.10;99.90;;;;;;6217897;23;20334;-82
2022/06/01 01:00:41;;;;;;;18.05;12.10;;;11.10;99.90;;;;;;6244702;23;20008;-82
2022/06/01 01:03:10;;;;;;;18.55;11.50;;;11.10;99.90;;;;;;6244786;23;20008;-81
2022/06/01 01:05:40;;;;;;;19.08;12.48;;;11.00;99.90;;;;;;6245013;23;20019;-82
2022/06/01 01:08:06;;;;;;;18.40;12.40;;;11.00;99.90;;;;;;6217860;23;20504;-82
2022/06/01 01:10:33;;;;;;;18.95;11.63;;;11.00;99.90;;;;;;6244672;23;20022;-82
2022/06/01 01:13:01;;;;;;;17.88;12.13;;;11.10;99.90;;;;;;6244856;23;20457;-82
2022/06/01 01:15:40;;;;;;;19.00;11.02;;;11.00;99.90;;;;;;6218928;23;20016;-82
2022/06/01 01:18:12;;;;;;;18.33;11.95;;;11.10;99.90;;;;;;6244101;23;20449;-82
2022/06/01 01:20:49;;;;;;;16.83;12.02;;;11.00;99.90;;;;;;6193264;23;20012;-82
2022/06/01 01:23:38;;;;;;;17.65;12.52;;;11.00;99.90;;;;;;6244449;23;20023;-81
2022/06/01 01:26:05;;;;;;;20.13;12.73;;;11.00;99.90;;;;;;6193713;23;20091;-81
2022/06/01 01:28:31;;;;;;;18.02;12.05;;;11.00;99.90;;;;;;6244689;23;20012;-81
2022/06/01 01:31:05;;;;;;;16.05;11.60;;;11.00;99.90;;;;;;6245129;23;20004;-82
2022/06/01 01:33:32;;;;;;;17.20;12.27;;;11.00;99.90;;;;;;6193179;23;20326;-82
2022/06/01 01:36:08;;;;;;;20.65;13.38;;;11.00;99.90;;;;;;6244867;23;20016;-82
2022/06/01 01:38:40;;;;;;;18.80;12.80;;;11.00;99.90;;;;;;6242926;23;20473;-81
2022/06/01 01:41:07;;;;;;;28.90;13.32;;;11.00;99.90;;;;;;6217766;23;20090;-82
2022/06/01 01:43:36;;;;;;;19.42;12.63;;;11.00;99.90;;;;;;6192223;23;20118;-82
2022/06/01 01:46:03;;;;;;;21.33;12.63;;;11.00;99.90;;;;;;6217519;23;20012;-82
2022/06/01 01:48:30;;;;;;;17.50;12.05;;;11.00;99.90;;;;;;6244581;23;20012;-81
2022/06/01 01:50:56;;;;;;;16.13;11.52;;;11.00;99.90;;;;;;6245208;23;20457;-81
2022/06/01 01:53:21;;;;;;;17.83;12.40;;;11.00;99.90;;;;;;6245433;23;20018;-82
2022/06/01 01:56:12;;;;;;;18.63;12.23;;;11.00;99.90;;;;;;6245689;23;20567;-82
2022/06/01 01:58:42;;;;;;;17.65;12.25;;;11.10;99.90;;;;;;6245682;23;20016;-82
2022/06/01 02:01:15;;;;;;;16.80;11.60;;;11.00;99.90;;;;;;6192935;23;20008;-82
2022/06/01 02:06:04;;;;;;;17.30;12.05;;;11.10;99.90;;;;;;6217917;23;20134;-81
2022/06/01 02:07:04;;;;;;;16.45;11.00;;;11.20;99.90;;;;;;6217905;23;20091;-82
2022/06/01 02:12:40;;;;;;;16.58;11.68;;;11.10;99.90;;;;;;6217257;23;20027;-81
2022/06/01 02:15:00;;;;;;;17.52;11.85;;;11.20;99.90;;;;;;6217887;23;20158;-81
2022/06/01 02:17:33;;;;;;;16.42;11.82;;;11.20;99.90;;;;;;6248847;23;20055;-81
2022/06/01 02:20:02;;;;;;;18.35;11.13;;;11.20;99.90;;;;;;6251551;23;20082;-80
2022/06/01 02:22:28;;;;;;;19.50;12.27;;;11.20;99.90;;;;;;6200159;23;20022;-81
2022/06/01 02:24:54;;;;;;;18.05;11.55;;;11.20;99.90;;;;;;6227927;23;20387;-81
2022/06/01 02:27:20;;;;;;;17.98;11.80;;;11.20;99.90;;;;;;6226189;23;20047;-80
2022/06/01 02:29:59;;;;;;;19.27;13.07;;;11.20;99.90;;;;;;6226004;23;20015;-81
2022/06/01 02:32:26;;;;;;;16.17;12.00;;;11.20;99.90;;;;;;6252916;23;20019;-81
2022/06/01 02:34:54;;;;;;;15.45;10.90;;;11.20;99.90;;;;;;6254605;23;20012;-81
2022/06/01 02:37:22;;;;;;;16.73;12.10;;;11.10;99.90;;;;;;6227658;23;20016;-81
2022/06/01 02:39:52;;;;;;;16.95;11.48;;;11.20;99.90;;;;;;6255569;23;20067;-81
2022/06/01 02:42:30;;;;;;;18.80;12.30;;;11.20;99.90;;;;;;6226535;23;20023;-81
2022/06/01 02:45:06;;;;;;;16.75;10.82;;;11.20;99.90;;;;;;6230116;23;20019;-81
2022/06/01 02:47:36;;;;;;;15.98;11.32;;;11.20;99.90;;;;;;6201563;23;20077;-81
2022/06/01 02:50:02;;;;;;;17.90;11.40;;;11.20;99.90;;;;;;6226601;23;20016;-81
2022/06/01 02:52:29;;;;;;;17.20;11.93;;;11.20;99.90;;;;;;6254319;23;20023;-81
2022/06/01 02:54:55;;;;;;;13.05;10.80;;;11.10;99.90;;;;;;6227081;23;20012;-81
2022/06/01 02:57:21;;;;;;;15.35;11.57;;;11.10;99.90;;;;;;6227086;23;20035;-81
2022/06/01 02:59:47;;;;;;;13.98;11.10;;;11.10;99.90;;;;;;6237612;23;20031;-81
2022/06/01 03:02:13;;;;;;;13.88;10.48;;;11.20;99.90;;;;;;6268259;22;20026;-80
2022/06/01 03:04:41;;;;;;;18.00;11.65;;;11.10;99.90;;;;;;6234114;23;20012;-81
2022/06/01 03:07:07;;;;;;;16.98;12.15;;;11.10;99.90;;;;;;6223682;23;20456;-80
2022/06/01 03:09:33;;;;;;;18.00;11.73;;;11.10;99.90;;;;;;6223416;23;20008;-81
2022/06/01 03:12:00;;;;;;;17.70;12.57;;;11.10;99.90;;;;;;6250578;23;20008;-81
2022/06/01 03:14:27;;;;;;;16.25;11.85;;;11.10;99.90;;;;;;6249280;23;20492;-81
2022/06/01 03:16:53;;;;;;;18.38;12.25;;;11.00;99.90;;;;;;6249171;23;20020;-81
2022/06/01 03:19:18;;;;;;;18.27;12.73;;;11.00;99.90;;;;;;6199444;23;20062;-81
2022/06/01 03:21:44;;;;;;;18.02;11.90;;;11.10;99.90;;;;;;6249104;23;20012;-81
2022/06/01 03:24:10;;;;;;;16.55;12.60;;;11.00;99.90;;;;;;6249032;23;20008;-81
2022/06/01 03:26:36;;;;;;;18.88;12.85;;;11.00;99.90;;;;;;6248269;23;20027;-81
2022/06/01 03:29:03;;;;;;;19.80;12.48;;;11.00;99.90;;;;;;6250741;23;20438;-81
2022/06/01 03:31:29;;;;;;;17.25;11.63;;;10.90;99.90;;;;;;6222536;23;20012;-81
2022/06/01 03:33:55;;;;;;;18.90;12.88;;;10.90;99.90;;;;;;6222056;23;20456;-81
2022/06/01 03:36:21;;;;;;;18.00;13.55;;;10.90;99.90;;;;;;6197750;23;20113;-81
2022/06/01 03:38:46;;;;;;;17.77;12.57;;;11.00;99.90;;;;;;6248805;23;20004;-81
2022/06/01 03:41:12;;;;;;;16.20;11.82;;;11.00;99.90;;;;;;6248187;23;20046;-80
2022/06/01 03:46:22;;;;;;;18.75;12.60;;;11.00;99.90;;;;;;6247060;23;20100;-81
2022/06/01 03:48:49;;;;;;;20.42;13.60;;;11.00;99.90;;;;;;6247006;23;20380;-81
2022/06/01 03:51:15;;;;;;;18.75;12.93;;;11.10;99.90;;;;;;6220698;23;20071;-81
2022/06/01 03:53:41;;;;;;;20.38;14.32;;;11.20;99.90;;;;;;6220288;23;20016;-82
2022/06/01 03:56:08;;;;;;;20.95;14.23;;;11.00;99.90;;;;;;6218598;23;20012;-82
2022/06/01 03:58:34;;;;;;;21.60;14.90;;;11.00;99.90;;;;;;6218705;23;20013;-81
2022/06/01 04:01:00;;;;;;;24.10;16.35;;;11.10;99.90;;;;;;6218324;23;20012;-82
2022/06/01 04:03:27;;;;;;;23.17;15.68;;;11.20;99.90;;;;;;6218029;23;20047;-82
2022/06/01 04:05:52;;;;;;;24.98;16.73;;;11.10;99.90;;;;;;6193631;23;20008;-82
2022/06/01 04:08:20;;;;;;;22.75;14.80;;;11.10;99.90;;;;;;6193032;23;20027;-82
2022/06/01 04:10:46;;;;;;;23.42;15.60;;;11.10;99.90;;;;;;6244762;23;20019;-81
2022/06/01 04:13:13;;;;;;;26.70;15.32;;;11.00;99.90;;;;;;6245070;23;20004;-81
2022/06/01 04:15:39;;;;;;;26.17;15.88;;;11.10;99.90;;;;;;6192528;23;20467;-82
2022/06/01 04:18:05;;;;;;;24.58;16.40;;;11.10;99.90;;;;;;6217581;23;20035;-82
2022/06/01 04:20:31;;;;;;;23.55;16.20;;;11.00;99.90;;;;;;6246766;23;20433;-80
2022/06/01 04:23:00;;;;;;;23.10;16.30;;;11.00;99.90;;;;;;6220956;23;20008;-79
2022/06/01 04:25:27;;;;;;;22.80;15.25;;;11.00;99.90;;;;;;6221198;23;20012;-79
2022/06/01 04:27:52;;;;;;;24.40;16.58;;;11.00;99.90;;;;;;6220727;23;20027;-80
2022/06/01 04:30:20;;;;;;;24.45;16.55;;;11.00;99.90;;;;;;6195883;23;20020;-79
2022/06/01 04:32:49;;;;;;;26.35;16.27;;;11.00;99.90;;;;;;6220847;23;20014;-80
2022/06/01 04:35:16;;;;;;;26.85;16.38;;;11.10;99.90;;;;;;6221296;23;20012;-79
2022/06/01 04:37:42;;;;;;;23.67;16.27;;;11.10;99.90;;;;;;6248174;23;20023;-80
2022/06/01 04:40:09;;;;;;;27.75;16.55;;;11.10;99.90;;;;;;6252660;23;20251;-79
2022/06/01 04:42:36;;;;;;;22.38;15.15;;;11.20;99.90;;;;;;6254378;23;20015;-79
2022/06/01 04:45:02;;;;;;;26.08;17.35;;;11.20;99.90;;;;;;6229145;23;20011;-79
2022/06/01 04:47:28;;;;;;;25.15;15.68;;;11.30;99.90;;;;;;6226949;23;20142;-79
2022/06/01 04:49:53;;;;;;;23.70;15.70;;;11.30;99.90;;;;;;6250867;23;20022;-79
2022/06/01 04:52:19;;;;;;;24.05;15.82;;;11.40;99.90;;;;;;6249856;23;20016;-79
2022/06/01 04:54:44;;;;;;;25.27;17.85;;;11.40;99.90;;;;;;6222952;23;20023;-79
2022/06/01 04:57:10;;;;;;;26.23;17.75;;;11.50;99.90;;;;;;6201016;23;20076;-79
2022/06/01 04:59:36;;;;;;;31.25;19.80;;;11.50;99.90;;;;;;6227487;23;20026;-79
2022/06/01 05:02:01;;;;;;;27.63;17.13;;;11.50;99.90;;;;;;6226038;23;20008;-79
2022/06/01 05:04:28;;;;;;;30.55;18.00;;;11.50;99.90;;;;;;6226289;23;20040;-78
2022/06/01 05:06:55;;;;;;;26.27;17.40;;;11.50;99.90;;;;;;6229286;23;20012;-79
2022/06/01 05:09:21;;;;;;;27.63;18.38;;;11.60;99.90;;;;;;6199047;23;20385;-79
2022/06/01 05:11:47;;;;;;;28.95;18.33;;;11.50;99.90;;;;;;6196344;23;20020;-80
2022/06/01 05:14:12;;;;;;;28.42;18.77;;;11.60;99.90;;;;;;6201766;23;20024;-79
2022/06/01 05:16:38;;;;;;;29.67;18.45;;;11.70;99.90;;;;;;6202090;23;20058;-79
2022/06/01 05:19:04;;;;;;;35.58;20.33;;;11.70;99.90;;;;;;6199487;23;20012;-79
2022/06/01 05:21:30;;;;;;;27.08;17.10;;;11.70;99.90;;;;;;6245486;23;20020;-79
2022/06/01 05:23:55;;;;;;;48.20;27.17;;;11.80;99.90;;;;;;6247483;23;20441;-79
2022/06/01 05:26:21;;;;;;;29.90;17.65;;;11.80;99.90;;;;;;6222175;23;20363;-79
2022/06/01 05:28:47;;;;;;;24.65;16.80;;;11.80;99.90;;;;;;6221372;23;20012;-80
2022/06/01 05:31:14;;;;;;;29.70;18.42;;;11.90;99.90;;;;;;6246864;23;20070;-79
2022/06/01 05:33:43;;;;;;;24.90;17.02;;;12.00;99.90;;;;;;6246943;23;20012;-80
2022/06/01 05:36:09;;;;;;;27.00;16.75;;;12.00;99.90;;;;;;6254943;23;20020;-79
2022/06/01 05:38:35;;;;;;;26.85;16.30;;;12.20;99.90;;;;;;6232213;23;20016;-80
2022/06/01 05:41:01;;;;;;;26.35;15.55;;;12.60;99.90;;;;;;6195397;23;20449;-79
2022/06/01 05:43:27;;;;;;;23.20;16.30;;;13.10;99.90;;;;;;6222380;23;20012;-80
2022/06/01 05:45:53;;;;;;;22.10;16.17;;;13.40;99.90;;;;;;6222744;23;20456;-80
2022/06/01 05:48:20;;;;;;;26.88;17.42;;;13.50;99.90;;;;;;6221540;23;20363;-79
2022/06/01 05:50:46;;;;;;;26.35;18.48;;;13.50;99.90;;;;;;6221923;23;20069;-80
2022/06/01 05:53:12;;;;;;;27.65;17.95;;;13.50;99.90;;;;;;6223482;23;20076;-79
2022/06/01 05:55:39;;;;;;;23.73;16.35;;;13.40;99.90;;;;;;6247279;23;20016;-80
2022/06/01 05:58:26;;;;;;;24.45;17.83;;;13.30;99.90;;;;;;6249500;23;20502;-80
2022/06/01 06:00:53;;;;;;;27.52;17.23;;;13.20;99.90;;;;;;6247916;23;20290;-80
2022/06/01 06:03:20;;;;;;;24.80;17.02;;;13.30;99.90;;;;;;6220483;23;20048;-79
2022/06/01 06:08:30;;;;;;;22.23;16.25;;;14.90;99.90;;;;;;6219279;23;20020;-80
2022/06/01 06:10:56;;;;;;;21.92;17.25;;;15.70;99.90;;;;;;6194832;23;20066;-81
2022/06/01 06:13:22;;;;;;;23.20;15.95;;;16.30;99.90;;;;;;6249306;23;20012;-79
2022/06/01 06:15:48;;;;;;;22.02;16.52;;;16.80;99.90;;;;;;6196519;23;20043;-83
2022/06/01 06:18:15;;;;;;;20.98;15.20;;;17.10;99.90;;;;;;6219354;23;20023;-82
2022/06/01 06:20:42;;;;;;;22.20;15.75;;;17.30;99.90;;;;;;6193148;23;20454;-82
2022/06/01 06:23:09;;;;;;;21.27;15.75;;;17.20;99.90;;;;;;6192876;23;20087;-82
2022/06/01 06:25:35;;;;;;;17.65;14.48;;;16.90;99.90;;;;;;6192574;23;20087;-82
2022/06/01 06:28:00;;;;;;;18.08;12.77;;;16.40;99.90;;;;;;6194076;23;20109;-81
2022/06/01 06:30:26;;;;;;;15.30;11.73;;;16.10;99.90;;;;;;6246010;23;20016;-82
2022/06/01 06:32:52;;;;;;;16.85;12.15;;;15.80;99.90;;;;;;6194280;23;20323;-82
2022/06/01 06:35:18;;;;;;;16.30;12.40;;;15.50;99.90;;;;;;6223806;23;20051;-81
2022/06/01 06:37:44;;;;;;;16.85;11.65;;;15.20;99.90;;;;;;6214082;23;20023;-81
2022/06/01 06:40:11;;;;;;;15.38;10.82;;;15.10;99.90;;;;;;6241238;23;20022;-82
2022/06/01 06:42:37;;;;;;;14.57;10.93;;;15.00;99.90;;;;;;6250477;23;20008;-82
2022/06/01 06:45:06;;;;;;;12.98;9.75;;;14.90;99.90;;;;;;6221503;23;20016;-82
2022/06/01 06:47:32;;;;;;;15.95;10.20;;;14.90;99.90;;;;;;6193523;23;20337;-82
2022/06/01 06:49:59;;;;;;;12.90;10.77;;;14.80;99.90;;;;;;6193591;23;20100;-82
2022/06/01 06:52:26;;;;;;;13.27;10.38;;;14.80;99.90;;;;;;6216981;23;20055;-83
2022/06/01 06:54:54;;;;;;;15.70;10.95;;;15.00;99.90;;;;;;6217194;23;20008;-83
2022/06/01 06:57:20;;;;;;;13.27;10.15;;;15.40;99.90;;;;;;6218707;23;20018;-82
2022/06/01 06:59:48;;;;;;;13.15;9.43;;;16.00;99.90;;;;;;6193606;23;20031;-82
2022/06/01 07:02:26;;;;;;;11.93;9.63;;;16.40;99.90;;;;;;6192513;23;20015;-82
2022/06/01 07:04:56;;;;;;;11.82;8.20;;;17.00;99.90;;;;;;6219866;23;20019;-81
2022/06/01 07:07:22;;;;;;;11.25;8.32;;;17.20;99.90;;;;;;6219875;23;20090;-81
2022/06/01 07:09:47;;;;;;;12.30;8.45;;;17.30;99.90;;;;;;6193433;23;20012;-82
2022/06/01 07:12:16;;;;;;;11.80;8.65;;;17.40;99.90;;;;;;6217833;23;20417;-83
2022/06/01 07:14:42;;;;;;;11.27;8.40;;;17.20;99.90;;;;;;6193039;23;20133;-82
2022/06/01 07:17:08;;;;;;;10.68;8.50;;;16.80;99.90;;;;;;6193267;23;20013;-82
2022/06/01 07:19:33;;;;;;;9.50;8.02;;;16.40;99.90;;;;;;6193605;23;20065;-82
2022/06/01 07:21:59;;;;;;;10.73;7.53;;;16.00;99.90;;;;;;6193284;23;20012;-82
2022/06/01 07:24:25;;;;;;;11.25;8.30;;;15.90;99.90;;;;;;6193386;23;20061;-83
2022/06/01 07:26:51;;;;;;;11.93;7.18;;;15.80;99.90;;;;;;6193310;23;20023;-82
2022/06/01 07:29:21;;;;;;;9.23;6.88;;;15.80;99.90;;;;;;6218062;23;20135;-82
2022/06/01 07:31:47;;;;;;;8.02;5.93;;;15.90;99.90;;;;;;6244790;23;20332;-82
2022/06/01 07:34:13;;;;;;;8.55;7.30;;;16.50;99.90;;;;;;6217858;23;20055;-83
2022/06/01 07:36:39;;;;;;;8.00;6.60;;;17.20;99.90;;;;;;6218239;23;20340;-83
2022/06/01 07:44:44;;;;;;;7.03;5.77;;;18.40;99.90;;;;;;6218663;23;20441;-82
2022/06/01 07:47:11;;;;;;;7.75;6.95;;;18.10;99.90;;;;;;6194306;23;20353;-83
2022/06/01 07:49:37;;;;;;;9.63;7.10;;;17.70;99.90;;;;;;6195207;23;20018;-81
2022/06/01 07:52:04;;;;;;;10.10;7.05;;;17.40;99.90;;;;;;6194195;23;20087;-81
2022/06/01 07:58:09;;;;;;;8.25;6.22;;;16.70;99.90;;;;;;6244683;23;20113;-84
2022/06/01 08:01:10;;;;;;;8.00;6.68;;;16.00;99.90;;;;;;6217083;23;20449;-84
2022/06/01 08:07:17;;;;;;;5.60;3.45;;;15.00;99.90;;;;;;6237519;23;20070;-83
2022/06/01 08:09:42;;;;;;;5.72;1.90;;;14.30;99.90;;;;;;6217684;23;20019;-84
2022/06/01 08:14:36;;;;;;;3.08;1.17;;;13.40;99.90;;;;;;6244797;23;20028;-84
2022/06/01 08:17:02;;;;;;;2.03;1.05;;;13.20;99.90;;;;;;6217917;23;20024;-83
2022/06/01 08:29:54;;;;;;;1.63;1.20;;;12.50;99.90;;;;;;6217091;23;20016;-84
2022/06/01 08:32:20;;;;;;;1.95;1.40;;;12.40;99.90;;;;;;6217647;23;20020;-83
2022/06/01 08:34:46;;;;;;;3.30;1.83;;;12.30;99.90;;;;;;6192825;23;20461;-83
2022/06/01 08:37:11;;;;;;;2.17;1.33;;;12.20;99.90;;;;;;6218676;23;20012;-83
2022/06/01 08:39:37;;;;;;;2.80;1.42;;;12.30;99.90;;;;;;6193507;23;20005;-83
2022/06/01 08:42:04;;;;;;;3.28;1.30;;;12.30;99.90;;;;;;6194232;22;20047;-83
2022/06/01 08:44:33;;;;;;;2.42;1.10;;;12.40;99.90;;;;;;6220157;23;20091;-83
2022/06/01 08:47:13;;;;;;;2.38;1.27;;;12.50;99.90;;;;;;6194980;23;20063;-83
2022/06/01 08:49:50;;;;;;;1.73;1.25;;;12.80;99.90;;;;;;6193353;23;20016;-83
2022/06/01 08:52:15;;;;;;;1.25;0.95;;;13.10;99.90;;;;;;6218502;23;20101;-84
2022/06/01 08:54:41;;;;;;;2.45;0.90;;;13.50;99.90;;;;;;6192172;23;20651;-84
2022/06/01 08:57:28;;;;;;;0.93;0.50;;;14.10;99.90;;;;;;6216924;23;20335;-84
2022/06/01 09:00:14;;;;;;;1.10;0.80;;;14.80;99.90;;;;;;6191929;23;20016;-84
2022/06/01 09:03:49;;;;;;;1.05;0.85;;;15.50;99.90;;;;;;6182517;23;20024;-85
2022/06/01 09:16:51;;;;;;;3.33;2.90;;;17.70;99.90;;;;;;6216872;23;20078;-83
2022/06/01 09:25:36;;;;;;;7.18;3.40;;;18.70;99.90;;;;;;6216562;23;20349;-84
2022/06/01 09:28:37;;;;;;;4.72;4.03;;;18.60;99.90;;;;;;6191573;23;20034;-84
2022/06/01 09:31:34;;;;;;;5.05;3.95;;;18.10;99.90;;;;;;6191054;23;20143;-84
2022/06/01 09:34:35;;;;;;;5.65;3.80;;;17.70;99.90;;;;;;6216160;23;20026;-83
2022/06/01 09:37:10;;;;;;;3.45;3.15;;;17.30;99.90;;;;;;6216578;23;20012;-83
2022/06/01 09:39:38;;;;;;;3.17;2.83;;;16.90;99.90;;;;;;6216315;23;20087;-83
2022/06/01 09:42:23;;;;;;;4.47;3.08;;;16.70;99.90;;;;;;6216074;22;20008;-84
2022/06/01 09:44:49;;;;;;;2.83;2.55;;;17.10;99.90;;;;;;6192067;23;20012;-83
2022/06/01 09:47:39;;;;;;;3.60;2.95;;;17.70;99.90;;;;;;6191883;23;20023;-83
2022/06/01 09:50:29;;;;;;;2.08;1.58;;;18.50;99.90;;;;;;6218540;23;20018;-83
2022/06/01 09:53:11;;;;;;;2.88;1.90;;;18.70;99.90;;;;;;6221868;23;20386;-83
2022/06/01 09:55:55;;;;;;;2.10;1.75;;;18.50;99.90;;;;;;6219976;23;20012;-83
2022/06/01 10:07:24;;;;;;;4.03;2.08;;;17.60;99.90;;;;;;6216004;23;20020;-83
2022/06/01 10:09:58;;;;;;;3.70;2.60;;;17.50;99.90;;;;;;6191167;23;20016;-84
2022/06/01 10:12:47;;;;;;;3.25;2.35;;;17.30;99.90;;;;;;6190929;23;20515;-83
2022/06/01 10:15:36;;;;;;;3.25;1.80;;;17.00;99.90;;;;;;6230285;22;20089;-84
2022/06/01 10:18:29;;;;;;;2.30;2.00;;;16.80;99.90;;;;;;6296547;22;20051;-84
2022/06/01 10:21:10;;;;;;;2.70;2.03;;;16.50;99.90;;;;;;6272083;22;20011;-85
2022/06/01 10:23:55;;;;;;;3.10;1.98;;;16.50;99.90;;;;;;6272194;22;20019;-84
2022/06/01 10:26:24;;;;;;;3.70;2.00;;;16.80;99.90;;;;;;6271966;22;20011;-85
2022/06/01 10:29:03;;;;;;;2.40;2.00;;;17.00;99.90;;;;;;6271925;22;20008;-85
2022/06/01 10:31:39;;;;;;;2.47;2.20;;;17.10;99.90;;;;;;6246078;22;20019;-85
2022/06/01 10:34:18;;;;;;;3.40;2.35;;;17.00;99.90;;;;;;6271988;22;20012;-85
2022/06/01 10:37:18;;;;;;;3.78;2.55;;;16.90;99.90;;;;;;6271985;22;20008;-84
2022/06/01 10:39:52;;;;;;;2.85;2.25;;;16.70;99.90;;;;;;6271650;22;20043;-84
2022/06/01 10:45:33;;;;;;;3.90;2.70;;;16.50;99.90;;;;;;6290152;22;20077;-85
2022/06/01 10:48:33;;;;;;;3.37;2.60;;;16.40;99.90;;;;;;6298595;22;20079;-82
2022/06/01 10:51:18;;;;;;;3.30;2.80;;;16.30;99.90;;;;;;6298171;22;20246;-82
2022/06/01 10:53:51;;;;;;;4.05;2.47;;;16.10;99.90;;;;;;6275974;22;20045;-80
2022/06/01 10:56:20;;;;;;;3.33;2.13;;;16.00;99.90;;;;;;6277659;22;20007;-80
2022/06/01 10:58:48;;;;;;;1.70;1.50;;;15.80;99.90;;;;;;6275947;22;20015;-82
2022/06/01 11:01:41;;;;;;;6.07;1.73;;;15.60;99.90;;;;;;6275598;22;20073;-82
2022/06/01 11:04:44;;;;;;;1.20;1.10;;;15.40;99.90;;;;;;6249044;22;20349;-81
2022/06/01 11:07:49;;;;;;;2.13;0.90;;;15.10;99.90;;;;;;6249746;22;20374;-82
2022/06/01 11:10:51;;;;;;;3.05;0.90;;;14.90;99.90;;;;;;6253349;22;20011;-81
2022/06/01 11:13:29;;;;;;;1.40;1.15;;;14.70;99.90;;;;;;6250100;22;20020;-82
2022/06/01 11:16:08;;;;;;;1.60;1.30;;;14.60;99.90;;;;;;6250230;22;20020;-82
2022/06/01 11:19:06;;;;;;;2.45;1.30;;;14.60;99.90;;;;;;6275947;22;20015;-82
2022/06/01 11:22:04;;;;;;;1.92;1.23;;;14.60;99.90;;;;;;6224706;22;20452;-82
2022/06/01 11:24:57;;;;;;;1.15;1.05;;;14.80;99.90;;;;;;6279241;22;20018;-81
2022/06/01 11:27:41;;;;;;;1.58;0.95;;;15.20;99.90;;;;;;6278563;22;20350;-83
2022/06/01 11:30:13;;;;;;;0.95;0.63;;;16.00;99.90;;;;;;6275899;22;20058;-82
2022/06/01 11:33:01;;;;;;;0.68;0.50;;;16.80;99.90;;;;;;6278737;22;20520;-82
2022/06/01 11:35:39;;;;;;;0.73;0.45;;;17.30;99.90;;;;;;6276957;22;20038;-82
2022/06/01 11:38:19;;;;;;;0.60;0.52;;;17.80;99.90;;;;;;6277404;22;20022;-82
2022/06/01 11:40:50;;;;;;;1.40;0.47;;;18.10;99.90;;;;;;6277433;22;20110;-81
2022/06/01 11:43:28;;;;;;;0.88;0.60;;;18.50;99.90;;;;;;6253609;22;20018;-80
2022/06/01 11:46:13;;;;;;;0.88;0.30;;;18.50;99.90;;;;;;6281392;22;20299;-80
2022/06/01 11:48:52;;;;;;;0.40;0.40;;;18.30;99.90;;;;;;6279483;22;20337;-82
2022/06/01 11:51:43;;;;;;;1.92;0.45;;;18.20;99.90;;;;;;6254049;22;20050;-81
2022/06/01 11:54:34;;;;;;;0.83;0.60;;;18.00;99.90;;;;;;6279124;22;20072;-82
2022/06/01 11:57:25;;;;;;;0.50;0.50;;;17.80;99.90;;;;;;6257883;22;20020;-82
2022/06/01 12:00:16;;;;;;;1.60;0.40;;;17.30;99.90;;;;;;6283634;22;20019;-80
2022/06/01 12:02:45;;;;;;;0.50;0.50;;;17.00;99.90;;;;;;6279342;22;20042;-83
2022/06/01 12:05:30;;;;;;;0.73;0.73;;;16.90;99.90;;;;;;6253079;22;20468;-82
2022/06/01 12:08:16;;;;;;;1.52;0.68;;;16.80;99.90;;;;;;6279187;22;20035;-81
2022/06/01 12:10:59;;;;;;;0.73;0.40;;;16.70;99.90;;;;;;6253705;22;20015;-80
2022/06/01 12:13:24;;;;;;;0.70;0.60;;;17.00;99.90;;;;;;6277885;22;20050;-82
2022/06/01 12:16:40;;;;;;;0.50;0.50;;;17.30;99.90;;;;;;6278287;22;20015;-82
2022/06/01 12:19:08;;;;;;;0.88;0.68;;;17.70;99.90;;;;;;6130234;23;20023;-82
2022/06/01 12:21:56;;;;;;;1.80;1.25;;;18.00;99.90;;;;;;6249900;22;20039;-81
2022/06/01 12:30:06;;;;;;;2.50;1.40;;;18.20;99.90;;;;;;6273878;22;20016;-83
2022/06/01 12:32:58;;;;;;;2.05;1.20;;;18.50;99.90;;;;;;6299735;22;20015;-82
2022/06/01 12:35:24;;;;;;;;;;;18.70;99.90;;;;;;6274396;22;20445;-81
2022/06/01 12:38:09;;;;;;;1.50;1.35;;;18.90;99.90;;;;;;6248012;22;19969;-82
2022/06/01 12:40:36;;;;;;;2.42;1.48;;;19.00;99.90;;;;;;6273130;22;20043;-82
2022/06/01 12:43:11;;;;;;;3.22;1.75;;;19.00;99.90;;;;;;6299244;22;20465;-81
2022/06/01 12:45:40;;;;;;;1.90;1.60;;;19.10;99.90;;;;;;6247899;22;20053;-82
2022/06/01 12:48:23;;;;;;;2.75;1.55;;;19.10;99.90;;;;;;6274357;22;20086;-81
2022/06/01 12:50:52;;;;;;;12.13;2.20;;;19.20;99.90;;;;;;6272988;22;20016;-82
2022/06/01 12:53:27;;;;;;;2.35;2.05;;;19.10;99.90;;;;;;6247498;22;20412;-81
2022/06/01 12:56:33;;;;;;;11.05;3.83;;;19.10;99.90;;;;;;6273820;22;20015;-81
2022/06/01 12:59:15;;;;;;;3.53;2.13;;;19.20;99.90;;;;;;6263757;22;20035;-82
2022/06/01 13:01:41;;;;;;;2.67;1.75;;;19.30;99.90;;;;;;6273684;22;20409;-82
2022/06/01 13:04:23;;;;;;;3.30;1.73;;;19.40;99.90;;;;;;6248015;22;20012;-81
2022/06/01 13:06:50;;;;;;;3.53;1.98;;;19.50;99.90;;;;;;6270429;22;20448;-80
2022/06/01 13:09:24;;;;;;;4.03;2.15;;;19.70;99.90;;;;;;6275766;22;20016;-80
2022/06/01 13:11:59;;;;;;;2.17;1.80;;;19.50;99.90;;;;;;6273499;22;20020;-80
2022/06/01 13:14:26;;;;;;;18.30;3.72;;;19.50;99.90;;;;;;6273577;22;20019;-83
2022/06/01 13:16:53;;;;;;;11.65;3.05;;;19.30;99.90;;;;;;6247956;22;20043;-82
2022/06/01 13:19:25;;;;;;;10.23;2.58;;;19.10;99.90;;;;;;6273860;22;20008;-81
2022/06/01 13:21:57;;;;;;;5.38;1.90;;;19.00;99.90;;;;;;6273709;22;20091;-82
2022/06/01 13:24:24;;;;;;;4.30;1.60;;;19.00;99.90;;;;;;6248361;22;20007;-81
2022/06/01 13:26:53;;;;;;;5.25;1.60;;;19.10;99.90;;;;;;6273633;22;20410;-81
2022/06/01 13:29:24;;;;;;;3.85;1.30;;;19.20;99.90;;;;;;6300230;22;20015;-81
2022/06/01 13:31:57;;;;;;;1.63;0.97;;;19.20;99.90;;;;;;6248126;22;20091;-81
2022/06/01 13:34:50;;;;;;;5.40;1.35;;;19.00;99.90;;;;;;6274865;22;20344;-83
2022/06/01 13:37:17;;;;;;;2.55;1.30;;;18.80;99.90;;;;;;6276003;22;20456;-81
2022/06/01 13:40:06;;;;;;;7.78;1.52;;;18.50;99.90;;;;;;6274490;22;20008;-81
2022/06/01 13:42:37;;;;;;;1.45;1.00;;;18.30;99.90;;;;;;6274392;22;20460;-81
2022/06/01 13:45:08;;;;;;;0.93;0.88;;;18.00;99.90;;;;;;6274733;22;20015;-81
2022/06/01 13:47:44;;;;;;;1.23;1.13;;;18.00;99.90;;;;;;6274646;22;20024;-81
2022/06/01 13:50:27;;;;;;;1.02;0.90;;;18.20;99.90;;;;;;6248131;22;20024;-81
2022/06/01 13:52:52;;;;;;;0.75;0.70;;;18.10;99.90;;;;;;6274123;22;20082;-81
2022/06/01 13:55:28;;;;;;;0.60;0.60;;;17.80;99.90;;;;;;6276924;22;20469;-81
2022/06/01 13:58:05;;;;;;;1.52;0.70;;;18.00;99.90;;;;;;6276412;22;20019;-82
2022/06/01 14:00:35;;;;;;;0.65;0.60;;;18.10;99.90;;;;;;6273320;22;20562;-81
2022/06/01 14:03:10;;;;;;;1.77;1.00;;;18.20;99.90;;;;;;6275657;22;20063;-82
2022/06/01 14:05:42;;;;;;;0.93;0.70;;;18.10;99.90;;;;;;6275865;22;20193;-81
2022/06/01 14:08:12;;;;;;;1.27;0.77;;;18.00;99.90;;;;;;6249113;22;20459;-81
2022/06/01 14:10:47;;;;;;;1.48;0.70;;;18.00;99.90;;;;;;6274629;22;20057;-81